Terminal Aerodrome Forecast
Issued by NWS

Home | Current Version | Previous Version | Text Only | Print | Product List | Glossary On
Versions: 1 2 3 4 5 6 7 8 9 10 11 12 13 14
117
FTAK31 PAJN 200531
TAFASI
TAF
PASI 200531Z 2006/2106 27005KT P6SM VCSH SCT025 OVC040
      TEMPO 2006/2009 2SM -SHSN BKN025
     FM201400 36008KT P6SM SCT035 BKN050=

USA.gov is the U.S. government's official web portal to all federal, state and local government web resources and services.